Time;durP1;ratioP1;P1;durP2;ratioP2;P2;SDS_P1;SDS_P2;PMS_P1;PMS_P2;Temp;Humidity;BMP_temperature;BMP_pressure;BME280_temperature;BME280_humidity;BME280_pressure;Samples;Min_cycle;Max_cycle;Signal;HPM_P1;HPM_P2
2023/12/13 00:01:40;;;;;;;27.45;14.25;;;25.20;99.90;;;;;;4969705;28;20081;-44
2023/12/13 00:04:05;;;;;;;15.88;10.18;;;25.20;99.90;;;;;;4965072;28;20066;-44
2023/12/13 00:06:31;;;;;;;21.17;11.75;;;25.20;99.90;;;;;;4977649;28;20050;-46
2023/12/13 00:08:57;;;;;;;19.92;12.50;;;25.20;99.90;;;;;;4984777;28;20034;-45
2023/12/13 00:11:23;;;;;;;18.67;11.65;;;25.10;99.90;;;;;;4974148;28;20045;-48
2023/12/13 00:13:49;;;;;;;23.00;12.75;;;25.10;99.90;;;;;;4961427;28;20031;-47
2023/12/13 00:16:15;;;;;;;19.88;12.05;;;25.10;99.90;;;;;;4958987;28;20153;-46
2023/12/13 00:18:41;;;;;;;14.30;8.95;;;25.10;99.90;;;;;;4956491;28;20039;-45
2023/12/13 00:21:09;;;;;;;24.60;11.95;;;25.10;99.90;;;;;;4957944;28;20051;-45
2023/12/13 00:23:35;;;;;;;21.25;12.30;;;25.10;99.90;;;;;;4973233;28;20539;-46
2023/12/13 00:26:02;;;;;;;18.55;11.65;;;25.10;99.90;;;;;;4970003;28;20151;-44
2023/12/13 00:28:28;;;;;;;20.35;11.60;;;25.00;99.90;;;;;;4970779;28;20077;-48
2023/12/13 00:30:54;;;;;;;20.85;12.20;;;25.00;99.90;;;;;;4966609;28;20122;-47
2023/12/13 00:33:20;;;;;;;24.98;10.68;;;25.00;99.90;;;;;;4963409;28;20130;-45
2023/12/13 00:35:46;;;;;;;17.02;11.52;;;25.00;99.90;;;;;;4958271;28;20114;-44
2023/12/13 00:38:12;;;;;;;17.00;10.73;;;25.00;99.90;;;;;;4958435;28;20038;-45
2023/12/13 00:40:38;;;;;;;23.95;11.55;;;25.00;99.90;;;;;;4956064;28;20019;-47
2023/12/13 00:43:05;;;;;;;19.05;10.30;;;25.00;99.90;;;;;;4958657;28;20542;-46
2023/12/13 00:45:31;;;;;;;17.13;10.10;;;25.00;99.90;;;;;;4977922;28;20030;-47
2023/12/13 00:47:57;;;;;;;18.83;12.20;;;25.00;99.90;;;;;;4966006;28;20038;-47
2023/12/13 00:50:23;;;;;;;13.13;9.95;;;25.00;99.90;;;;;;4975060;28;20065;-46
2023/12/13 00:52:48;;;;;;;17.15;9.93;;;25.00;99.90;;;;;;4959075;28;20023;-46
2023/12/13 00:55:14;;;;;;;17.08;10.48;;;25.00;99.90;;;;;;4977378;28;20038;-47
2023/12/13 00:57:40;;;;;;;16.17;11.02;;;25.00;99.90;;;;;;4990878;28;20029;-48
2023/12/13 01:02:34;;;;;;;22.38;9.80;;;25.00;99.90;;;;;;4955766;28;19922;-49
2023/12/13 01:05:00;;;;;;;14.82;9.82;;;25.00;99.90;;;;;;4971834;28;20034;-50
2023/12/13 01:07:25;;;;;;;17.67;9.57;;;25.00;99.90;;;;;;4960358;28;20517;-48
2023/12/13 01:09:51;;;;;;;17.25;9.80;;;24.90;99.90;;;;;;4968144;28;20042;-49
2023/12/13 01:12:17;;;;;;;18.10;10.52;;;25.00;99.90;;;;;;4938526;28;20083;-49
2023/12/13 01:14:43;;;;;;;14.88;9.65;;;24.90;99.90;;;;;;4961299;28;20174;-50
2023/12/13 01:17:10;;;;;;;16.00;8.43;;;24.90;99.90;;;;;;4964020;28;20034;-49
2023/12/13 01:19:36;;;;;;;17.02;8.27;;;24.90;99.90;;;;;;4948471;29;20389;-51
2023/12/13 01:22:02;;;;;;;11.93;8.20;;;24.90;99.90;;;;;;4958998;28;20027;-51
2023/12/13 01:24:28;;;;;;;19.55;8.98;;;24.90;99.90;;;;;;4953912;28;20063;-49
2023/12/13 01:26:54;;;;;;;15.93;7.97;;;24.90;99.90;;;;;;4954826;28;20023;-51
2023/12/13 01:29:20;;;;;;;13.55;8.75;;;24.90;99.90;;;;;;4944243;28;20012;-50
2023/12/13 01:31:46;;;;;;;14.85;8.50;;;24.90;99.90;;;;;;4940795;29;20094;-50
2023/12/13 01:34:12;;;;;;;13.65;8.20;;;24.90;99.90;;;;;;4940639;28;20023;-50
2023/12/13 01:36:41;;;;;;;12.40;8.05;;;24.90;99.90;;;;;;4943185;29;20439;-50
2023/12/13 01:39:08;;;;;;;14.63;8.10;;;24.80;99.90;;;;;;4952780;28;20035;-50
2023/12/13 01:41:34;;;;;;;13.32;6.97;;;24.80;99.90;;;;;;4939214;28;20026;-51
2023/12/13 01:43:59;;;;;;;11.68;7.20;;;24.80;99.90;;;;;;4935300;29;20023;-50
2023/12/13 01:46:25;;;;;;;12.98;7.38;;;24.80;99.90;;;;;;4950191;28;20029;-50
2023/12/13 01:48:52;;;;;;;11.80;6.50;;;24.80;99.90;;;;;;4958023;28;20480;-50
2023/12/13 01:51:18;;;;;;;12.90;6.95;;;24.70;99.90;;;;;;4955933;28;20075;-50
2023/12/13 01:53:44;;;;;;;14.80;7.18;;;24.70;99.90;;;;;;4947252;28;20027;-51
2023/12/13 01:56:12;;;;;;;10.00;7.45;;;24.70;99.90;;;;;;4948396;28;20490;-50
2023/12/13 01:58:38;;;;;;;12.40;6.75;;;24.70;99.90;;;;;;4951919;28;20102;-49
2023/12/13 02:01:09;;;;;;;11.52;6.63;;;24.70;99.90;;;;;;4972356;23;20106;-47
2023/12/13 02:03:36;;;;;;;17.60;6.68;;;24.70;99.90;;;;;;4957418;28;20554;-46
2023/12/13 02:06:03;;;;;;;10.52;6.03;;;24.70;99.90;;;;;;4958677;28;20019;-47
2023/12/13 02:08:30;;;;;;;11.50;6.25;;;24.70;99.90;;;;;;4955061;28;20555;-48
2023/12/13 02:10:58;;;;;;;15.95;6.68;;;24.70;99.90;;;;;;4979013;28;20126;-47
2023/12/13 02:13:24;;;;;;;13.63;6.60;;;24.60;99.90;;;;;;4977444;28;20034;-47
2023/12/13 02:15:50;;;;;;;10.43;6.25;;;24.70;99.90;;;;;;4961334;28;20046;-46
2023/12/13 02:18:16;;;;;;;14.35;6.70;;;24.60;99.90;;;;;;4967975;28;20039;-45
2023/12/13 02:20:45;;;;;;;12.60;6.22;;;24.60;99.90;;;;;;4970340;28;20373;-45
2023/12/13 02:23:11;;;;;;;9.23;5.72;;;24.60;99.90;;;;;;4972427;28;20114;-46
2023/12/13 02:26:00;;;;;;;11.57;6.70;;;24.70;99.90;;;;;;4969478;28;20099;-46
2023/12/13 02:28:27;;;;;;;9.75;6.07;;;24.60;99.90;;;;;;4965645;28;20397;-45
2023/12/13 02:30:55;;;;;;;11.05;6.10;;;24.60;99.90;;;;;;4965249;28;20031;-45
2023/12/13 02:33:24;;;;;;;;;;;24.60;99.90;;;;;;4972903;28;20475;-45
2023/12/13 02:35:56;;;;;;;8.45;6.00;;;24.60;99.90;;;;;;4971296;28;19910;-44
2023/12/13 02:38:21;;;;;;;9.57;5.72;;;24.60;99.90;;;;;;4966265;28;20034;-45
2023/12/13 02:40:47;;;;;;;7.78;5.43;;;24.60;99.90;;;;;;4964397;28;20031;-45
2023/12/13 02:43:13;;;;;;;11.25;5.97;;;24.60;99.90;;;;;;4964751;28;20027;-44
2023/12/13 02:45:39;;;;;;;7.05;5.57;;;24.60;99.90;;;;;;4964657;28;20157;-50
2023/12/13 02:48:05;;;;;;;10.45;5.80;;;24.60;99.90;;;;;;4966823;28;20054;-46
2023/12/13 02:50:31;;;;;;;8.82;5.97;;;24.50;99.90;;;;;;4969754;28;20035;-44
2023/12/13 02:52:57;;;;;;;12.07;5.95;;;24.50;99.90;;;;;;4972164;28;20438;-44
2023/12/13 02:55:23;;;;;;;9.70;5.13;;;24.50;99.90;;;;;;4975387;28;20027;-44
2023/12/13 02:57:48;;;;;;;10.30;5.35;;;24.50;99.90;;;;;;4976290;28;20034;-44
2023/12/13 03:00:14;;;;;;;11.02;5.50;;;24.50;99.90;;;;;;4976348;28;20084;-44
2023/12/13 03:02:40;;;;;;;9.30;5.45;;;24.50;99.90;;;;;;4975925;28;20505;-45
2023/12/13 03:05:06;;;;;;;10.13;5.65;;;24.50;99.90;;;;;;4975757;28;20023;-45
2023/12/13 03:07:32;;;;;;;11.48;5.68;;;24.40;99.90;;;;;;4975362;28;20023;-45
2023/12/13 03:09:58;;;;;;;9.55;5.25;;;24.40;99.90;;;;;;4970562;28;20031;-46
2023/12/13 03:12:24;;;;;;;7.70;4.75;;;24.40;99.90;;;;;;4972414;28;21044;-45
2023/12/13 03:14:49;;;;;;;9.02;4.97;;;24.40;99.90;;;;;;4976267;28;20109;-46
2023/12/13 03:17:15;;;;;;;11.27;5.25;;;24.40;99.90;;;;;;4989322;28;20055;-44
2023/12/13 03:19:41;;;;;;;9.57;5.00;;;24.40;99.90;;;;;;4967868;28;20043;-45
2023/12/13 03:22:07;;;;;;;8.65;4.93;;;24.30;99.90;;;;;;4974988;28;20026;-46
2023/12/13 03:24:34;;;;;;;6.38;4.25;;;24.30;99.90;;;;;;4969621;28;20063;-46
2023/12/13 03:27:00;;;;;;;8.00;4.88;;;24.30;99.90;;;;;;4975806;28;20027;-45
2023/12/13 03:29:25;;;;;;;7.28;4.72;;;24.30;99.90;;;;;;4975959;28;20050;-46
2023/12/13 03:31:51;;;;;;;8.73;4.55;;;24.30;99.90;;;;;;4975933;28;20046;-45
2023/12/13 03:34:17;;;;;;;9.63;5.13;;;24.30;99.90;;;;;;4975992;28;20057;-45
2023/12/13 03:36:43;;;;;;;7.03;4.40;;;24.30;99.90;;;;;;4975994;28;20027;-46
2023/12/13 03:39:09;;;;;;;9.50;4.43;;;24.30;99.90;;;;;;4975549;28;20519;-46
2023/12/13 03:41:34;;;;;;;12.75;5.22;;;24.20;99.90;;;;;;4975691;28;20034;-45
2023/12/13 03:44:00;;;;;;;6.95;4.47;;;24.30;99.90;;;;;;4975311;28;20045;-45
2023/12/13 03:46:26;;;;;;;6.63;4.38;;;24.20;99.90;;;;;;4973488;28;20023;-46
2023/12/13 03:48:52;;;;;;;11.38;4.82;;;24.20;99.90;;;;;;4974736;28;20448;-45
2023/12/13 03:51:18;;;;;;;7.63;5.13;;;24.20;99.90;;;;;;4975932;28;20093;-45
2023/12/13 03:53:43;;;;;;;9.18;4.28;;;24.20;99.90;;;;;;4975789;28;20054;-45
2023/12/13 03:56:10;;;;;;;7.90;4.25;;;24.20;99.90;;;;;;4976084;28;20078;-45
2023/12/13 03:58:36;;;;;;;6.70;4.03;;;24.20;99.90;;;;;;4975674;28;20027;-46
2023/12/13 04:01:02;;;;;;;8.45;4.50;;;24.10;99.90;;;;;;4976099;28;20410;-46
2023/12/13 04:03:28;;;;;;;9.88;5.70;;;24.20;99.90;;;;;;4975613;28;20026;-45
2023/12/13 04:05:54;;;;;;;7.22;4.18;;;24.10;99.90;;;;;;4975167;28;20042;-46
2023/12/13 04:08:19;;;;;;;9.27;3.78;;;24.10;99.90;;;;;;4990570;28;20113;-45
2023/12/13 04:10:45;;;;;;;7.63;4.22;;;24.10;99.90;;;;;;4975594;28;20034;-46
2023/12/13 04:13:11;;;;;;;8.48;4.25;;;24.10;99.90;;;;;;4975814;28;20030;-45
2023/12/13 04:15:37;;;;;;;9.27;4.00;;;24.10;99.90;;;;;;4975772;28;20030;-45
2023/12/13 04:18:03;;;;;;;8.07;4.18;;;24.10;99.90;;;;;;4975435;28;20062;-45
2023/12/13 04:20:29;;;;;;;13.60;4.38;;;24.00;99.90;;;;;;4975261;28;20491;-45
2023/12/13 04:22:55;;;;;;;9.18;3.95;;;24.00;99.90;;;;;;4975442;28;20022;-45
2023/12/13 04:25:21;;;;;;;6.93;3.70;;;24.00;99.90;;;;;;4975272;28;20542;-45
2023/12/13 04:27:47;;;;;;;10.38;4.05;;;24.00;99.90;;;;;;4975368;28;20045;-45
2023/12/13 04:30:14;;;;;;;5.78;3.50;;;24.00;99.90;;;;;;4975470;28;20116;-45
2023/12/13 04:32:40;;;;;;;8.10;3.40;;;24.00;99.90;;;;;;4975250;28;20475;-45
2023/12/13 04:35:08;;;;;;;8.23;3.65;;;24.00;99.90;;;;;;4975150;28;20041;-46
2023/12/13 04:37:35;;;;;;;7.90;4.63;;;24.00;99.90;;;;;;4975029;28;20015;-46
2023/12/13 04:40:01;;;;;;;6.72;3.70;;;24.00;99.90;;;;;;4975032;28;20100;-46
2023/12/13 04:42:27;;;;;;;7.35;4.22;;;23.90;99.90;;;;;;4974975;28;20472;-46
2023/12/13 04:44:53;;;;;;;8.85;4.32;;;23.90;99.90;;;;;;4974996;28;20022;-45
2023/12/13 04:47:19;;;;;;;10.13;4.03;;;23.90;99.90;;;;;;4974854;28;20027;-45
2023/12/13 04:49:45;;;;;;;7.28;3.50;;;23.90;99.90;;;;;;4974878;28;20035;-45
2023/12/13 04:52:11;;;;;;;9.20;3.72;;;23.90;99.90;;;;;;4988623;28;20410;-45
2023/12/13 04:54:37;;;;;;;7.88;3.53;;;23.90;99.90;;;;;;4973826;28;20030;-46
2023/12/13 04:57:04;;;;;;;6.25;3.40;;;23.90;99.90;;;;;;4973763;28;20030;-47
2023/12/13 04:59:30;;;;;;;6.15;3.78;;;23.90;99.90;;;;;;4973489;28;20035;-46
2023/12/13 05:01:56;;;;;;;4.82;3.35;;;23.90;99.90;;;;;;4973734;28;20038;-46
2023/12/13 05:04:22;;;;;;;7.43;3.42;;;23.90;99.90;;;;;;4973081;28;20077;-45
2023/12/13 05:06:48;;;;;;;6.57;3.50;;;23.80;99.90;;;;;;4972400;28;20023;-45
2023/12/13 05:09:14;;;;;;;6.97;3.58;;;23.80;99.90;;;;;;4972544;28;20030;-45
2023/12/13 05:11:41;;;;;;;6.38;3.03;;;23.80;99.90;;;;;;4972410;28;20023;-45
2023/12/13 05:14:07;;;;;;;4.68;3.22;;;23.80;99.90;;;;;;4987169;28;20439;-46
2023/12/13 05:16:33;;;;;;;7.70;3.40;;;23.80;99.90;;;;;;4972236;28;20026;-45
2023/12/13 05:18:59;;;;;;;4.40;3.10;;;23.80;99.90;;;;;;4972168;28;20031;-46
2023/12/13 05:21:25;;;;;;;7.25;3.40;;;23.80;99.90;;;;;;4974309;28;20073;-45
2023/12/13 05:23:50;;;;;;;5.82;3.33;;;23.80;99.90;;;;;;4974284;28;20431;-45
2023/12/13 05:26:16;;;;;;;7.43;3.05;;;23.70;99.90;;;;;;4973089;28;20048;-46
2023/12/13 05:28:43;;;;;;;4.88;3.13;;;23.70;99.90;;;;;;4973105;28;20155;-45
2023/12/13 05:31:18;;;;;;;8.90;3.40;;;23.70;99.90;;;;;;4972868;28;20399;-53
2023/12/13 05:33:44;;;;;;;5.78;2.95;;;23.70;99.90;;;;;;4974208;28;20074;-46
2023/12/13 05:36:10;;;;;;;6.32;3.25;;;23.70;99.90;;;;;;4973959;28;20039;-46
2023/12/13 05:38:36;;;;;;;6.97;3.28;;;23.70;99.90;;;;;;4973866;28;20058;-46
2023/12/13 05:41:02;;;;;;;5.28;3.05;;;23.70;99.90;;;;;;4973972;28;20022;-45
2023/12/13 05:43:28;;;;;;;5.13;3.15;;;23.70;99.90;;;;;;4973872;28;20018;-45
2023/12/13 05:45:54;;;;;;;7.88;2.97;;;23.70;99.90;;;;;;4973899;28;20037;-46
2023/12/13 05:48:20;;;;;;;10.05;3.92;;;23.70;99.90;;;;;;4973776;28;20026;-46
2023/12/13 05:50:46;;;;;;;6.32;2.88;;;23.70;99.90;;;;;;4973928;28;20372;-45
2023/12/13 05:53:12;;;;;;;3.95;2.78;;;23.70;99.90;;;;;;4973799;28;20030;-45
2023/12/13 05:55:37;;;;;;;6.50;2.88;;;23.70;99.90;;;;;;4973727;28;20051;-45
2023/12/13 05:58:03;;;;;;;5.47;2.58;;;23.70;99.90;;;;;;4988466;28;20510;-45
2023/12/13 06:00:31;;;;;;;6.32;3.08;;;23.70;99.90;;;;;;4972512;28;20451;-44
2023/12/13 06:02:58;;;;;;;;;;;23.70;99.90;;;;;;4972289;28;20026;-46
2023/12/13 06:05:24;;;;;;;5.10;2.67;;;23.60;99.90;;;;;;4972831;28;19910;-46
2023/12/13 06:07:50;;;;;;;4.22;2.15;;;23.60;99.90;;;;;;4971601;28;20058;-45
2023/12/13 06:10:17;;;;;;;4.00;2.40;;;23.60;99.90;;;;;;4973577;28;20058;-45
2023/12/13 06:12:43;;;;;;;4.18;2.42;;;23.60;99.90;;;;;;4972556;28;20038;-45
2023/12/13 06:15:09;;;;;;;4.93;2.55;;;23.60;99.90;;;;;;4973616;28;20035;-45
2023/12/13 06:17:35;;;;;;;5.57;2.60;;;23.60;99.90;;;;;;4973469;28;20102;-45
2023/12/13 06:20:01;;;;;;;3.67;2.22;;;23.60;99.90;;;;;;4973459;28;20042;-45
2023/12/13 06:22:27;;;;;;;3.95;2.50;;;23.60;99.90;;;;;;4973514;28;20380;-46
2023/12/13 06:24:53;;;;;;;5.32;2.40;;;23.60;99.90;;;;;;4973509;28;20050;-46
2023/12/13 06:27:19;;;;;;;5.25;2.40;;;23.60;99.90;;;;;;4973532;28;20479;-46
2023/12/13 06:29:45;;;;;;;5.05;2.17;;;23.50;99.90;;;;;;4975882;28;20027;-46
2023/12/13 06:32:11;;;;;;;5.32;2.40;;;23.50;99.90;;;;;;4977597;28;20134;-46
2023/12/13 06:34:37;;;;;;;5.50;2.35;;;23.60;99.90;;;;;;4975319;28;20050;-45
2023/12/13 06:37:03;;;;;;;3.28;1.95;;;23.60;99.90;;;;;;4975524;28;20025;-46
2023/12/13 06:39:29;;;;;;;3.00;2.17;;;23.50;99.90;;;;;;4976854;28;20041;-45
2023/12/13 06:41:55;;;;;;;4.32;2.63;;;23.60;99.90;;;;;;4974533;28;20043;-46
2023/12/13 06:44:21;;;;;;;6.63;2.03;;;23.60;99.90;;;;;;4976705;28;20078;-45
2023/12/13 06:46:47;;;;;;;3.20;2.25;;;23.50;99.90;;;;;;4975149;28;20427;-45
2023/12/13 06:49:13;;;;;;;3.42;2.45;;;23.50;99.90;;;;;;4977023;28;20118;-45
2023/12/13 06:51:39;;;;;;;3.75;2.28;;;23.50;99.90;;;;;;4976473;28;20390;-46
2023/12/13 06:54:08;;;;;;;3.72;2.05;;;23.50;99.90;;;;;;4976492;28;20035;-46
2023/12/13 06:56:34;;;;;;;5.38;2.22;;;23.50;99.90;;;;;;4976682;28;20432;-46
2023/12/13 06:59:00;;;;;;;6.15;2.03;;;23.50;99.90;;;;;;4976636;28;20042;-46
2023/12/13 07:01:26;;;;;;;4.55;2.65;;;23.50;99.90;;;;;;4991440;28;20051;-45
2023/12/13 07:03:52;;;;;;;3.38;1.90;;;23.50;99.90;;;;;;4991718;28;20085;-47
2023/12/13 07:06:18;;;;;;;5.28;1.88;;;23.50;99.90;;;;;;4976861;28;20050;-45
2023/12/13 07:08:45;;;;;;;2.63;2.10;;;23.40;99.90;;;;;;4976611;28;20062;-46
2023/12/13 07:11:11;;;;;;;4.57;1.97;;;23.40;99.90;;;;;;4976692;28;20121;-46
2023/12/13 07:13:37;;;;;;;4.63;2.00;;;23.40;99.90;;;;;;4976634;28;20495;-46
2023/12/13 07:16:03;;;;;;;3.08;1.67;;;23.40;99.90;;;;;;4976556;28;20030;-45
2023/12/13 07:18:29;;;;;;;2.70;1.90;;;23.40;99.90;;;;;;4976317;28;20047;-46
2023/12/13 07:20:55;;;;;;;2.47;1.90;;;23.40;99.90;;;;;;4976420;28;20026;-46
2023/12/13 07:23:21;;;;;;;3.65;2.10;;;23.40;99.90;;;;;;4976573;28;20030;-46
2023/12/13 07:25:47;;;;;;;4.18;2.13;;;23.40;99.90;;;;;;4976448;28;20093;-46
2023/12/13 07:28:13;;;;;;;5.47;1.70;;;23.40;99.90;;;;;;4976392;28;20027;-46
2023/12/13 07:30:41;;;;;;;5.80;2.10;;;23.40;99.90;;;;;;4976244;28;20030;-46
2023/12/13 07:33:08;;;;;;;3.88;2.70;;;23.40;99.90;;;;;;4976179;28;20027;-45
2023/12/13 07:35:34;;;;;;;5.93;2.95;;;23.40;99.90;;;;;;4991418;28;20384;-45
2023/12/13 07:38:00;;;;;;;4.53;2.10;;;23.40;99.90;;;;;;4975971;28;20042;-46
2023/12/13 07:40:27;;;;;;;3.03;1.73;;;23.40;99.90;;;;;;4975121;28;20067;-46
2023/12/13 07:42:53;;;;;;;3.60;1.95;;;23.40;99.90;;;;;;4976243;28;20085;-46
2023/12/13 07:45:20;;;;;;;6.70;2.13;;;23.40;99.90;;;;;;4975987;28;20027;-45
2023/12/13 07:47:47;;;;;;;3.33;1.83;;;23.40;99.90;;;;;;4975986;28;20065;-46
2023/12/13 07:50:12;;;;;;;5.82;1.80;;;23.40;99.90;;;;;;4975857;28;20088;-45
2023/12/13 07:52:38;;;;;;;6.72;2.40;;;23.50;99.90;;;;;;4975902;28;20031;-46
2023/12/13 07:55:04;;;;;;;8.57;2.17;;;23.50;99.90;;;;;;4975874;28;20027;-46
2023/12/13 07:57:30;;;;;;;4.82;2.00;;;23.50;99.90;;;;;;4975667;28;20019;-46
2023/12/13 07:59:56;;;;;;;5.50;2.10;;;23.50;99.90;;;;;;4975729;28;20050;-46
2023/12/13 08:02:23;;;;;;;4.95;1.73;;;23.50;99.90;;;;;;4975765;28;20129;-46
2023/12/13 08:04:49;;;;;;;5.60;2.17;;;23.50;99.90;;;;;;4975707;28;20077;-46
2023/12/13 08:07:15;;;;;;;4.57;1.83;;;23.50;99.90;;;;;;4975648;28;20038;-46
2023/12/13 08:09:41;;;;;;;3.88;2.08;;;23.50;99.90;;;;;;4974473;28;20026;-45
2023/12/13 08:12:09;;;;;;;7.68;2.60;;;23.50;99.90;;;;;;4975592;28;20050;-45
2023/12/13 08:14:34;;;;;;;2.65;1.70;;;23.50;99.90;;;;;;4975479;28;20435;-46
2023/12/13 08:17:06;;;;;;;5.15;1.95;;;23.50;99.90;;;;;;4975415;28;20114;-46
2023/12/13 08:19:32;;;;;;;3.88;2.00;;;23.50;99.90;;;;;;4975222;28;20455;-46
2023/12/13 08:21:57;;;;;;;5.10;1.90;;;23.50;99.90;;;;;;4975317;28;20050;-46
2023/12/13 08:24:23;;;;;;;5.78;2.08;;;23.50;99.90;;;;;;4975484;28;20022;-46
2023/12/13 08:26:49;;;;;;;8.10;2.65;;;23.50;99.90;;;;;;4975290;28;20023;-47
2023/12/13 08:29:15;;;;;;;4.93;2.10;;;23.50;99.90;;;;;;4975400;28;20035;-47
2023/12/13 08:31:41;;;;;;;3.95;2.00;;;23.60;99.90;;;;;;4973990;28;20073;-47
2023/12/13 08:34:07;;;;;;;3.55;1.65;;;23.50;99.90;;;;;;4975183;28;20411;-47
2023/12/13 08:36:33;;;;;;;6.35;2.35;;;23.50;99.90;;;;;;4975011;28;20046;-47
2023/12/13 08:38:58;;;;;;;4.63;2.00;;;23.50;99.90;;;;;;4975032;28;20071;-47
2023/12/13 08:41:24;;;;;;;3.78;1.38;;;23.50;99.90;;;;;;4975262;28;20030;-47
2023/12/13 08:43:50;;;;;;;4.13;1.92;;;23.50;99.90;;;;;;4974898;28;20022;-47
2023/12/13 08:46:16;;;;;;;5.05;2.42;;;23.60;99.90;;;;;;4974937;28;20486;-47
2023/12/13 08:48:41;;;;;;;4.22;1.60;;;23.50;99.90;;;;;;4974823;28;20035;-47
2023/12/13 08:51:07;;;;;;;4.32;2.03;;;23.60;99.90;;;;;;4974883;28;20027;-47
2023/12/13 08:53:33;;;;;;;5.28;1.73;;;23.60;99.90;;;;;;4974668;28;20049;-47
2023/12/13 08:56:00;;;;;;;5.55;1.85;;;23.60;99.90;;;;;;4974793;28;20420;-47
2023/12/13 08:58:25;;;;;;;3.53;1.90;;;23.60;99.90;;;;;;4975047;28;20073;-47
2023/12/13 09:00:51;;;;;;;3.88;1.60;;;23.60;99.90;;;;;;4973322;28;20407;-47
2023/12/13 09:03:19;;;;;;;2.90;1.58;;;23.60;99.90;;;;;;4974520;28;20118;-47
2023/12/13 09:05:45;;;;;;;2.85;1.60;;;23.60;99.90;;;;;;4974411;28;20026;-47
2023/12/13 09:08:11;;;;;;;2.53;1.30;;;23.60;99.90;;;;;;4974487;28;20153;-47
2023/12/13 09:10:36;;;;;;;3.28;1.42;;;23.60;99.90;;;;;;4974520;28;20057;-47
2023/12/13 09:13:03;;;;;;;3.33;1.67;;;23.60;99.90;;;;;;4973138;28;20030;-47
2023/12/13 09:15:30;;;;;;;3.67;1.77;;;23.60;99.90;;;;;;4973135;28;20527;-47
2023/12/13 09:17:57;;;;;;;4.28;1.50;;;23.60;99.90;;;;;;4974482;28;20041;-47
2023/12/13 09:20:23;;;;;;;5.80;1.83;;;23.60;99.90;;;;;;4974216;28;20400;-46
2023/12/13 09:22:49;;;;;;;3.10;1.58;;;23.60;99.90;;;;;;4974284;28;20027;-47
2023/12/13 09:25:14;;;;;;;2.63;1.38;;;23.60;99.90;;;;;;4974297;28;20034;-47
2023/12/13 09:27:44;;;;;;;3.30;1.67;;;23.60;99.90;;;;;;4974232;28;20117;-48
2023/12/13 09:30:11;;;;;;;6.00;1.52;;;23.60;99.90;;;;;;4974136;28;20107;-47
2023/12/13 09:32:38;;;;;;;5.95;1.85;;;23.60;99.90;;;;;;4974151;28;20018;-46
2023/12/13 09:35:04;;;;;;;2.85;1.50;;;23.60;99.90;;;;;;4974206;28;20038;-46
2023/12/13 09:37:30;;;;;;;3.33;1.45;;;23.60;99.90;;;;;;4973863;28;20360;-46
2023/12/13 09:39:56;;;;;;;3.50;1.63;;;23.60;99.90;;;;;;4974195;28;20510;-46
2023/12/13 09:42:24;;;;;;;5.45;1.58;;;23.60;99.90;;;;;;4974038;28;20105;-46
2023/12/13 09:44:50;;;;;;;;;;;23.60;99.90;;;;;;4974291;28;20138;-46
2023/12/13 09:47:17;;;;;;;1.83;1.35;;;23.60;99.90;;;;;;4973770;28;20382;-46
2023/12/13 09:49:43;;;;;;;3.40;1.35;;;23.60;99.90;;;;;;4973829;28;20033;-46
2023/12/13 09:52:11;;;;;;;3.90;2.20;;;23.60;99.90;;;;;;4973806;28;20428;-46
2023/12/13 09:54:39;;;;;;;3.08;1.83;;;23.60;99.90;;;;;;4973696;28;20023;-46
2023/12/13 09:57:05;;;;;;;2.38;1.38;;;23.60;99.90;;;;;;4973695;28;20034;-46
2023/12/13 09:59:31;;;;;;;3.10;2.17;;;23.60;99.90;;;;;;4972199;28;20506;-47
2023/12/13 10:01:57;;;;;;;4.63;2.42;;;23.60;99.90;;;;;;4973229;28;20047;-47
2023/12/13 10:04:28;;;;;;;5.00;2.90;;;23.60;99.90;;;;;;4972965;28;20034;-48
2023/12/13 10:06:54;;;;;;;6.32;3.58;;;23.60;99.90;;;;;;4973339;28;20019;-47
2023/12/13 10:09:20;;;;;;;4.03;2.55;;;23.70;99.90;;;;;;4973300;28;20030;-47
2023/12/13 10:11:46;;;;;;;6.13;3.60;;;23.70;99.90;;;;;;4972617;28;20391;-47
2023/12/13 10:14:12;;;;;;;5.97;2.20;;;23.70;99.90;;;;;;4972242;28;20468;-47
2023/12/13 10:16:41;;;;;;;4.50;2.00;;;23.70;99.90;;;;;;4972075;28;20054;-46
2023/12/13 10:19:07;;;;;;;4.97;2.58;;;23.80;99.90;;;;;;4973379;28;20098;-47
2023/12/13 10:21:36;;;;;;;3.92;2.42;;;23.80;99.90;;;;;;4973329;28;20027;-47
2023/12/13 10:24:06;;;;;;;5.80;2.25;;;23.80;99.90;;;;;;4973397;28;20110;-47
2023/12/13 10:26:35;;;;;;;6.88;2.60;;;23.90;99.90;;;;;;4988382;28;20498;-47
2023/12/13 10:29:02;;;;;;;8.32;2.72;;;23.90;99.90;;;;;;4971998;28;20114;-47
2023/12/13 10:31:29;;;;;;;3.83;2.20;;;23.90;99.90;;;;;;4973489;28;20027;-48
2023/12/13 10:33:56;;;;;;;5.20;2.15;;;23.90;99.90;;;;;;4973219;28;20097;-47
2023/12/13 10:36:24;;;;;;;6.30;3.03;;;23.90;99.90;;;;;;4988288;28;20494;-48
2023/12/13 10:38:53;;;;;;;3.67;2.40;;;23.90;99.90;;;;;;4972748;28;20063;-47
2023/12/13 10:41:25;;;;;;;4.60;2.50;;;23.90;99.90;;;;;;4973066;28;20107;-45
2023/12/13 10:43:57;;;;;;;4.85;2.17;;;23.90;99.90;;;;;;4971090;28;20026;-46
2023/12/13 10:46:26;;;;;;;4.20;2.78;;;23.90;99.90;;;;;;4972085;28;20097;-45
2023/12/13 10:48:54;;;;;;;4.45;2.60;;;23.90;99.90;;;;;;4973135;28;20031;-46
2023/12/13 10:51:22;;;;;;;7.28;2.47;;;23.90;99.90;;;;;;4973195;28;20035;-46
2023/12/13 10:53:48;;;;;;;;;;;23.90;99.90;;;;;;4972539;28;20054;-47
2023/12/13 10:56:15;;;;;;;5.45;2.00;;;23.90;99.90;;;;;;4972988;28;19910;-47
2023/12/13 10:58:44;;;;;;;6.35;2.40;;;24.00;99.90;;;;;;4973108;28;20030;-46
2023/12/13 11:01:12;;;;;;;3.95;2.05;;;23.90;99.90;;;;;;4971864;28;20046;-45
2023/12/13 11:03:40;;;;;;;;;;;24.00;99.90;;;;;;4972288;28;20054;-44
2023/12/13 11:06:07;;;;;;;4.72;1.50;;;24.00;99.90;;;;;;4972353;28;19906;-46
2023/12/13 11:08:40;;;;;;;5.25;1.85;;;24.00;99.90;;;;;;4971141;28;20483;-46
2023/12/13 11:11:08;;;;;;;2.17;1.48;;;24.00;99.90;;;;;;4972355;28;20034;-46
2023/12/13 11:13:55;;;;;;;2.38;1.40;;;24.00;99.90;;;;;;4973114;28;20082;-46
2023/12/13 11:16:23;;;;;;;2.65;1.60;;;24.00;99.90;;;;;;4973771;28;20031;-45
2023/12/13 11:18:51;;;;;;;1.88;1.30;;;24.00;99.90;;;;;;4975713;28;20047;-46
2023/12/13 11:21:26;;;;;;;2.10;1.40;;;24.00;99.90;;;;;;4979006;28;20024;-46
2023/12/13 11:23:57;;;;;;;6.32;1.70;;;24.00;99.90;;;;;;4986737;28;20101;-46
2023/12/13 11:26:23;;;;;;;4.22;1.40;;;24.00;99.90;;;;;;4976172;28;20019;-48
2023/12/13 11:28:54;;;;;;;2.70;1.05;;;24.00;99.90;;;;;;4975192;28;20117;-46
2023/12/13 11:31:24;;;;;;;3.47;1.20;;;24.00;99.90;;;;;;4974077;28;20034;-45
2023/12/13 11:33:54;;;;;;;2.30;1.67;;;24.00;99.90;;;;;;4974331;28;20023;-45
2023/12/13 11:36:25;;;;;;;5.70;3.50;;;24.00;99.90;;;;;;4975070;28;20030;-46
2023/12/13 11:38:53;;;;;;;7.70;4.88;;;24.00;99.90;;;;;;4971920;28;20058;-45
2023/12/13 11:41:19;;;;;;;4.50;3.30;;;24.00;99.90;;;;;;4976138;28;20022;-45
2023/12/13 11:43:46;;;;;;;5.35;3.35;;;24.00;99.90;;;;;;4976035;28;20030;-46
2023/12/13 11:46:15;;;;;;;5.10;2.85;;;24.00;99.90;;;;;;4975986;28;20162;-46
2023/12/13 11:48:43;;;;;;;7.57;3.42;;;24.00;99.90;;;;;;4975873;28;20027;-45
2023/12/13 11:51:09;;;;;;;5.18;2.47;;;24.00;99.90;;;;;;4975932;28;20042;-46
2023/12/13 11:53:35;;;;;;;8.25;3.05;;;24.00;99.90;;;;;;4974926;28;20101;-46
2023/12/13 11:56:07;;;;;;;11.80;3.38;;;24.00;99.90;;;;;;4975780;28;20102;-46
2023/12/13 11:58:33;;;;;;;9.88;3.80;;;24.00;99.90;;;;;;4975801;28;20377;-46
2023/12/13 12:00:59;;;;;;;7.20;2.92;;;24.00;99.90;;;;;;4975643;28;20067;-46
2023/12/13 12:03:25;;;;;;;5.90;3.05;;;24.00;99.90;;;;;;4990553;28;20383;-46
2023/12/13 12:05:51;;;;;;;5.10;2.80;;;24.00;99.90;;;;;;4974473;28;20109;-45
2023/12/13 12:08:25;;;;;;;7.05;2.75;;;24.00;99.90;;;;;;4974845;28;20134;-46
2023/12/13 12:10:52;;;;;;;11.77;3.53;;;24.00;99.90;;;;;;4973873;28;20102;-46
2023/12/13 12:13:21;;;;;;;7.97;2.63;;;24.00;99.90;;;;;;4990659;28;20035;-47
2023/12/13 12:15:47;;;;;;;11.05;4.05;;;23.90;99.90;;;;;;4975758;28;20031;-46
2023/12/13 12:18:13;;;;;;;6.68;2.97;;;24.00;99.90;;;;;;4975418;28;20035;-46
2023/12/13 12:20:41;;;;;;;8.52;3.47;;;23.90;99.90;;;;;;4990337;28;20035;-46
2023/12/13 12:23:09;;;;;;;6.70;3.00;;;23.90;99.90;;;;;;4974872;28;20082;-46
2023/12/13 12:25:35;;;;;;;10.05;2.88;;;23.90;99.90;;;;;;4967485;28;20090;-46
2023/12/13 12:28:01;;;;;;;11.93;3.53;;;23.90;99.90;;;;;;4968760;28;20027;-46
2023/12/13 12:30:27;;;;;;;6.47;2.65;;;23.90;99.90;;;;;;4974621;28;20122;-47
2023/12/13 12:32:52;;;;;;;9.85;2.65;;;23.90;99.90;;;;;;4975122;28;20102;-46
2023/12/13 12:35:18;;;;;;;6.20;2.70;;;23.90;99.90;;;;;;4974989;28;20093;-46
2023/12/13 12:37:45;;;;;;;10.13;3.03;;;23.90;99.90;;;;;;4988113;28;20341;-46
2023/12/13 12:40:10;;;;;;;5.95;2.95;;;23.90;99.90;;;;;;4974062;28;20129;-45
2023/12/13 12:42:36;;;;;;;9.90;3.28;;;23.90;99.90;;;;;;4983793;28;20109;-46
2023/12/13 12:45:02;;;;;;;13.95;2.85;;;23.90;99.90;;;;;;4987711;28;20511;-46